Time;durP1;ratioP1;P1;durP2;ratioP2;P2;SDS_P1;SDS_P2;PMS_P1;PMS_P2;Temp;Humidity;BMP_temperature;BMP_pressure;BME280_temperature;BME280_humidity;BME280_pressure;Samples;Min_cycle;Max_cycle;Signal;HPM_P1;HPM_P2
2023/10/17 00:00:54;;;;;;;4.10;2.15;;;8.30;99.90;;;;;;5024968;28;20046;-80
2023/10/17 00:03:20;;;;;;;7.38;2.80;;;8.30;99.90;;;;;;5008266;28;20145;-80
2023/10/17 00:05:45;;;;;;;3.58;2.47;;;8.30;99.90;;;;;;5024167;28;20498;-80
2023/10/17 00:08:12;;;;;;;2.63;2.40;;;8.30;99.90;;;;;;5017673;28;20080;-80
2023/10/17 00:10:44;;;;;;;9.23;2.20;;;8.30;99.90;;;;;;5007582;28;20045;-80
2023/10/17 00:15:55;;;;;;;3.42;2.45;;;8.20;99.90;;;;;;5023971;28;20060;-80
2023/10/17 00:18:25;;;;;;;3.53;2.42;;;8.20;99.90;;;;;;5023467;28;20057;-80
2023/10/17 00:20:52;;;;;;;3.35;2.22;;;8.20;99.90;;;;;;5023753;28;20072;-80
2023/10/17 00:23:20;;;;;;;3.70;2.10;;;8.20;99.90;;;;;;5024267;28;20033;-80
2023/10/17 00:25:48;;;;;;;3.13;2.70;;;8.20;99.90;;;;;;5024614;28;20049;-80
2023/10/17 00:28:13;;;;;;;3.40;1.92;;;8.20;99.90;;;;;;5021451;28;20068;-80
2023/10/17 00:30:41;;;;;;;4.45;2.38;;;8.20;99.90;;;;;;5022586;28;20512;-80
2023/10/17 00:33:10;;;;;;;3.53;2.33;;;8.10;99.90;;;;;;5025139;28;20041;-80
2023/10/17 00:35:39;;;;;;;5.50;2.20;;;8.10;99.90;;;;;;5006794;28;20049;-80
2023/10/17 00:38:07;;;;;;;4.82;2.15;;;8.10;99.90;;;;;;5023573;28;20064;-80
2023/10/17 00:40:45;;;;;;;5.45;3.03;;;8.10;99.90;;;;;;5023746;28;20053;-80
2023/10/17 00:43:14;;;;;;;4.00;2.85;;;8.10;99.90;;;;;;5023216;28;20037;-80
2023/10/17 00:45:41;;;;;;;16.95;2.25;;;8.10;99.90;;;;;;5022067;28;20048;-80
2023/10/17 00:48:18;;;;;;;5.00;3.08;;;8.10;99.90;;;;;;5023269;28;20041;-80
2023/10/17 00:50:46;;;;;;;4.28;2.38;;;8.10;99.90;;;;;;5024344;28;20037;-80
2023/10/17 00:53:13;;;;;;;4.60;3.53;;;8.10;99.90;;;;;;5022299;28;20095;-80
2023/10/17 00:55:39;;;;;;;4.50;2.65;;;8.10;99.90;;;;;;5024328;28;20045;-79
2023/10/17 00:58:06;;;;;;;6.22;3.30;;;8.20;99.90;;;;;;5023167;28;20044;-80
2023/10/17 01:00:40;;;;;;;3.97;2.42;;;8.20;99.90;;;;;;5021673;28;20084;-80
2023/10/17 01:03:13;;;;;;;7.93;3.03;;;8.20;99.90;;;;;;5023283;28;20042;-80
2023/10/17 01:05:42;;;;;;;2.75;2.40;;;8.20;99.90;;;;;;5023497;28;20484;-79
2023/10/17 01:08:08;;;;;;;4.07;2.58;;;8.30;99.90;;;;;;5005827;28;20108;-80
2023/10/17 01:10:35;;;;;;;2.58;2.17;;;8.20;99.90;;;;;;5005886;28;20616;-80
2023/10/17 01:13:02;;;;;;;3.22;2.33;;;8.30;99.90;;;;;;5090981;23;20071;-80
2023/10/17 01:15:32;;;;;;;2.50;1.88;;;8.30;99.90;;;;;;5035667;28;20388;-80
2023/10/17 01:18:03;;;;;;;6.47;2.85;;;8.30;99.90;;;;;;5034482;28;20050;-80
2023/10/17 01:20:30;;;;;;;3.78;2.47;;;8.30;99.90;;;;;;5032639;28;20072;-80
2023/10/17 01:22:56;;;;;;;4.40;2.67;;;8.30;99.90;;;;;;5040535;28;20041;-80
2023/10/17 01:25:25;;;;;;;4.40;2.70;;;8.30;99.90;;;;;;5026882;28;20037;-80
2023/10/17 01:27:51;;;;;;;2.55;1.83;;;8.30;99.90;;;;;;5036215;28;20053;-80
2023/10/17 01:30:18;;;;;;;5.28;2.67;;;8.30;99.90;;;;;;5038510;28;20665;-80
2023/10/17 01:32:44;;;;;;;3.22;2.22;;;8.30;99.90;;;;;;5042725;28;20123;-80
2023/10/17 01:35:10;;;;;;;3.60;2.17;;;8.40;99.90;;;;;;5028939;28;20107;-80
2023/10/17 01:37:36;;;;;;;2.92;2.40;;;8.40;99.90;;;;;;5028447;28;20104;-81
2023/10/17 01:40:19;;;;;;;2.85;2.03;;;8.40;99.90;;;;;;5039918;28;20063;-80
2023/10/17 01:42:45;;;;;;;8.57;2.67;;;8.40;99.90;;;;;;5041821;28;20052;-80
2023/10/17 01:45:11;;;;;;;2.25;1.45;;;8.30;99.90;;;;;;5039302;28;20119;-80
2023/10/17 01:47:38;;;;;;;4.70;1.90;;;8.30;99.90;;;;;;5041457;28;20076;-80
2023/10/17 01:50:07;;;;;;;4.50;2.45;;;8.40;99.90;;;;;;5014678;28;20044;-80
2023/10/17 01:52:35;;;;;;;3.45;1.75;;;8.30;99.90;;;;;;5026369;28;20033;-80
2023/10/17 01:55:01;;;;;;;3.20;2.20;;;8.30;99.90;;;;;;5031074;28;20495;-80
2023/10/17 01:57:34;;;;;;;3.92;1.42;;;8.30;99.90;;;;;;5028462;28;20034;-80
2023/10/17 02:00:00;;;;;;;2.95;1.92;;;8.20;99.90;;;;;;5028726;28;20045;-80
2023/10/17 02:02:25;;;;;;;3.33;2.63;;;8.20;99.90;;;;;;5041091;28;20113;-80
2023/10/17 02:04:51;;;;;;;3.35;2.25;;;8.20;99.90;;;;;;5041236;28;20049;-80
2023/10/17 02:07:17;;;;;;;4.57;1.80;;;8.10;99.90;;;;;;5041483;28;20112;-80
2023/10/17 02:09:46;;;;;;;2.78;1.98;;;8.10;99.90;;;;;;5042772;28;20298;-80
2023/10/17 02:12:12;;;;;;;3.65;1.75;;;8.00;99.90;;;;;;5041572;28;20060;-80
2023/10/17 02:14:41;;;;;;;4.07;1.83;;;8.00;99.90;;;;;;5042329;28;20049;-80
2023/10/17 02:17:09;;;;;;;2.22;2.03;;;8.00;99.90;;;;;;5041884;28;20064;-80
2023/10/17 02:19:38;;;;;;;4.18;1.88;;;8.00;99.90;;;;;;5040999;28;20041;-80
2023/10/17 02:22:09;;;;;;;3.08;1.80;;;8.00;99.90;;;;;;5021752;28;20518;-80
2023/10/17 02:24:36;;;;;;;3.42;2.50;;;7.90;99.90;;;;;;5037960;28;20248;-79
2023/10/17 02:27:06;;;;;;;3.65;2.03;;;7.90;99.90;;;;;;5041520;28;20041;-80
2023/10/17 02:29:36;;;;;;;2.90;2.55;;;7.90;99.90;;;;;;5035889;28;20057;-80
2023/10/17 02:32:01;;;;;;;2.50;2.30;;;7.90;99.90;;;;;;5007096;28;20072;-80
2023/10/17 02:34:29;;;;;;;3.55;2.17;;;7.90;99.90;;;;;;5040540;28;20076;-80
2023/10/17 02:36:55;;;;;;;4.80;2.70;;;7.90;99.90;;;;;;5041600;28;20133;-80
2023/10/17 02:39:21;;;;;;;2.22;1.52;;;7.90;99.90;;;;;;5031865;28;20033;-80
2023/10/17 02:41:57;;;;;;;3.67;3.38;;;7.90;99.90;;;;;;5042136;28;20506;-81
2023/10/17 02:44:24;;;;;;;3.38;1.88;;;7.80;99.90;;;;;;5039303;28;20053;-80
2023/10/17 02:46:50;;;;;;;6.90;2.30;;;7.80;99.90;;;;;;5041301;28;20052;-80
2023/10/17 02:49:16;;;;;;;2.90;1.88;;;7.80;99.90;;;;;;5041853;28;20411;-80
2023/10/17 02:51:42;;;;;;;3.78;2.78;;;7.70;99.90;;;;;;5037413;28;20071;-80
2023/10/17 02:54:13;;;;;;;2.25;1.98;;;7.80;99.90;;;;;;5040830;28;20108;-80
2023/10/17 02:56:46;;;;;;;2.78;1.52;;;7.70;99.90;;;;;;5039168;28;20076;-80
2023/10/17 02:59:12;;;;;;;2.53;1.90;;;7.70;99.90;;;;;;5041013;28;20060;-80
2023/10/17 03:01:45;;;;;;;3.28;1.88;;;7.60;99.90;;;;;;5042414;28;20080;-80
2023/10/17 03:04:16;;;;;;;2.75;1.40;;;7.70;99.90;;;;;;5042699;28;20033;-80
2023/10/17 03:06:44;;;;;;;3.15;1.88;;;7.70;99.90;;;;;;5019178;28;20419;-80
2023/10/17 03:14:39;;;;;;;1.98;1.40;;;7.60;99.90;;;;;;5044306;28;20049;-81
2023/10/17 03:17:05;;;;;;;2.22;1.60;;;7.60;99.90;;;;;;5045796;28;20102;-80
2023/10/17 03:19:33;;;;;;;4.05;1.42;;;7.60;99.90;;;;;;5044789;28;20676;-80
2023/10/17 03:22:19;;;;;;;3.15;2.47;;;7.60;99.90;;;;;;5046233;28;20041;-80
2023/10/17 03:24:46;;;;;;;2.78;2.47;;;7.50;99.90;;;;;;5034579;28;20041;-80
2023/10/17 03:27:23;;;;;;;1.88;1.58;;;7.50;99.90;;;;;;5045102;28;20123;-80
2023/10/17 03:29:49;;;;;;;2.53;2.33;;;7.40;99.90;;;;;;5045087;28;20044;-80
2023/10/17 03:32:15;;;;;;;1.98;1.65;;;7.40;99.90;;;;;;5044883;28;20198;-80
2023/10/17 03:34:45;;;;;;;5.05;2.30;;;7.40;99.90;;;;;;5045174;28;20558;-80
2023/10/17 03:39:54;;;;;;;3.78;1.42;;;7.30;99.90;;;;;;5042761;28;20554;-80
2023/10/17 03:45:23;;;;;;;1.45;1.25;;;7.30;99.90;;;;;;5038518;28;20095;-80
2023/10/17 03:47:56;;;;;;;4.38;2.13;;;7.40;99.90;;;;;;5043710;28;20048;-80
2023/10/17 03:53:07;;;;;;;2.72;1.92;;;7.30;99.90;;;;;;5025785;28;20502;-80
2023/10/17 03:55:42;;;;;;;2.30;1.45;;;7.30;99.90;;;;;;5023711;28;20116;-80
2023/10/17 04:01:01;;;;;;;1.52;1.38;;;7.40;99.90;;;;;;5044248;28;20053;-80
2023/10/17 04:03:30;;;;;;;2.08;1.65;;;7.40;99.90;;;;;;5043325;28;20103;-81
2023/10/17 04:09:15;;;;;;;2.00;1.50;;;7.50;99.90;;;;;;5040775;28;20114;-80
2023/10/17 04:11:43;;;;;;;5.05;2.55;;;7.50;99.90;;;;;;5031679;28;20431;-81
2023/10/17 04:14:10;;;;;;;3.60;1.60;;;7.50;99.90;;;;;;5042830;28;21710;-80
2023/10/17 04:16:39;;;;;;;2.95;2.20;;;7.50;99.90;;;;;;5040352;28;20047;-81
2023/10/17 04:19:07;;;;;;;4.43;1.50;;;7.50;99.90;;;;;;5027866;28;20465;-80
2023/10/17 04:21:51;;;;;;;2.63;2.20;;;7.60;99.90;;;;;;5026312;28;20083;-80
2023/10/17 04:24:35;;;;;;;10.52;2.28;;;7.60;99.90;;;;;;5044836;28;20041;-81
2023/10/17 04:29:38;;;;;;;3.08;1.80;;;7.60;99.90;;;;;;5039450;28;20107;-80
2023/10/17 04:32:13;;;;;;;2.83;2.20;;;7.60;99.90;;;;;;5043973;28;20068;-80
2023/10/17 04:34:45;;;;;;;3.40;1.58;;;7.60;99.90;;;;;;5043119;28;20546;-80
2023/10/17 04:37:16;;;;;;;1.60;1.08;;;7.50;99.90;;;;;;5041624;28;20040;-80
2023/10/17 04:39:48;;;;;;;2.95;1.77;;;7.60;99.90;;;;;;5040697;28;20087;-80
2023/10/17 04:42:20;;;;;;;2.38;1.70;;;7.60;99.90;;;;;;5041633;28;20041;-81
2023/10/17 04:45:03;;;;;;;1.88;1.67;;;7.60;99.90;;;;;;5042761;28;20040;-80
2023/10/17 04:47:31;;;;;;;4.85;2.40;;;7.60;99.90;;;;;;5043567;28;20052;-80
2023/10/17 04:49:56;;;;;;;6.78;1.73;;;7.60;99.90;;;;;;5031846;28;20081;-81
2023/10/17 04:52:29;;;;;;;3.70;1.80;;;7.60;99.90;;;;;;5040653;28;20041;-81
2023/10/17 04:55:01;;;;;;;1.95;1.33;;;7.60;99.90;;;;;;5039727;28;20048;-80
2023/10/17 04:57:54;;;;;;;2.35;1.60;;;7.60;99.90;;;;;;5022668;28;20037;-80
2023/10/17 05:00:25;;;;;;;2.42;2.08;;;7.60;99.90;;;;;;5022639;28;20057;-80
2023/10/17 05:03:13;;;;;;;3.67;2.08;;;7.60;99.90;;;;;;5022754;28;20060;-80
2023/10/17 05:05:45;;;;;;;3.35;1.80;;;7.60;99.90;;;;;;5023289;28;20045;-81
2023/10/17 05:08:11;;;;;;;2.55;1.98;;;7.60;99.90;;;;;;5033919;28;20147;-81
2023/10/17 06:19:16;;;;;;;1.90;1.58;;;7.60;99.90;;;;;;5034020;28;20102;-73
2023/10/17 06:26:59;;;;;;;5.05;1.60;;;7.40;99.90;;;;;;5040275;28;20079;-74
2023/10/17 06:34:22;;;;;;;2.97;1.40;;;7.40;99.90;;;;;;5041784;28;20056;-73
2023/10/17 06:37:01;;;;;;;3.78;1.90;;;7.40;99.90;;;;;;5033631;28;20041;-74
2023/10/17 06:39:36;;;;;;;3.90;2.13;;;7.30;99.90;;;;;;5037585;28;20040;-73
2023/10/17 06:42:14;;;;;;;3.83;2.33;;;7.30;99.90;;;;;;5039540;28;20143;-74
2023/10/17 06:44:54;;;;;;;2.53;1.90;;;7.30;99.90;;;;;;5035375;28;20052;-75
2023/10/17 06:53:01;;;;;;;2.00;1.27;;;7.30;99.90;;;;;;5036779;28;20052;-74
2023/10/17 06:55:43;;;;;;;2.35;1.67;;;7.30;99.90;;;;;;5028284;28;20095;-74
2023/10/17 06:58:10;;;;;;;2.08;1.17;;;7.30;99.90;;;;;;5014864;28;20161;-74
2023/10/17 07:00:49;;;;;;;2.95;1.50;;;7.30;99.90;;;;;;5011596;28;20041;-73
2023/10/17 07:03:16;;;;;;;1.10;1.02;;;7.30;99.90;;;;;;5033997;28;20041;-75
2023/10/17 07:05:49;;;;;;;3.08;1.17;;;7.40;99.90;;;;;;5035445;28;20049;-75
2023/10/17 07:08:21;;;;;;;1.70;1.20;;;7.40;99.90;;;;;;5036382;28;20062;-75
2023/10/17 07:10:59;;;;;;;7.40;1.83;;;7.40;99.90;;;;;;5039868;28;20555;-75
2023/10/17 07:13:54;;;;;;;1.40;1.05;;;7.40;99.90;;;;;;5021520;28;20067;-75
2023/10/17 07:16:32;;;;;;;3.28;1.65;;;7.50;99.90;;;;;;5031285;28;20484;-74
2023/10/17 07:19:09;;;;;;;4.55;1.67;;;7.50;99.90;;;;;;5022975;28;20127;-75
2023/10/17 07:21:55;;;;;;;3.50;2.20;;;7.50;99.90;;;;;;5033132;28;20042;-75
2023/10/17 07:24:23;;;;;;;4.85;1.70;;;7.50;99.90;;;;;;5036411;28;20112;-75
2023/10/17 07:26:52;;;;;;;3.72;1.88;;;7.50;99.90;;;;;;5023519;28;20041;-75
2023/10/17 07:29:22;;;;;;;4.03;1.63;;;7.50;99.90;;;;;;5031727;28;20052;-75
2023/10/17 07:31:55;;;;;;;3.38;1.33;;;7.60;99.90;;;;;;5036146;28;20052;-75
2023/10/17 07:34:22;;;;;;;6.28;1.80;;;7.60;99.90;;;;;;5029620;28;20049;-75
2023/10/17 07:36:52;;;;;;;1.95;1.40;;;7.60;99.90;;;;;;5038263;28;20045;-77
2023/10/17 07:39:24;;;;;;;2.58;1.85;;;7.60;99.90;;;;;;5038583;28;20045;-76
2023/10/17 07:41:54;;;;;;;;;;;7.70;99.90;;;;;;5037344;28;20049;-76
2023/10/17 07:44:25;;;;;;;1.48;1.30;;;7.70;99.90;;;;;;5031260;28;19921;-76
2023/10/17 07:47:09;;;;;;;1.98;1.30;;;7.80;99.90;;;;;;5025045;28;20038;-76
2023/10/17 07:49:36;;;;;;;2.45;1.30;;;7.80;99.90;;;;;;5039360;28;20071;-76
2023/10/17 07:52:15;;;;;;;7.00;2.28;;;7.80;99.90;;;;;;5042537;28;20053;-76
2023/10/17 07:57:36;;;;;;;3.53;1.13;;;7.90;99.90;;;;;;5036344;28;20045;-76
2023/10/17 08:00:24;;;;;;;1.23;1.13;;;8.00;99.90;;;;;;5042268;28;20041;-76
2023/10/17 08:02:48;;;;;;;2.67;1.15;;;8.00;99.90;;;;;;5040445;28;20053;-77
2023/10/17 08:05:17;;;;;;;1.20;1.10;;;8.00;99.90;;;;;;5042860;28;20573;-74
2023/10/17 08:07:48;;;;;;;1.10;0.90;;;8.10;99.90;;;;;;5042026;28;20120;-74
2023/10/17 08:10:20;;;;;;;2.58;1.42;;;8.10;99.90;;;;;;5041489;28;20045;-74
2023/10/17 08:12:51;;;;;;;1.83;1.20;;;8.20;99.90;;;;;;5041275;28;20045;-74
2023/10/17 08:15:22;;;;;;;5.40;2.83;;;8.10;99.90;;;;;;5040439;28;20048;-74
2023/10/17 08:17:49;;;;;;;7.43;3.15;;;8.20;99.90;;;;;;5042849;28;20055;-74
2023/10/17 08:22:55;;;;;;;1.73;1.30;;;8.30;99.90;;;;;;5043052;28;20095;-74
2023/10/17 08:26:10;;;;;;;4.78;2.22;;;8.30;99.90;;;;;;5042433;28;20040;-74
2023/10/17 08:28:31;;;;;;;3.78;1.15;;;8.30;99.90;;;;;;5038547;28;20474;-75
2023/10/17 08:31:05;;;;;;;6.53;2.33;;;8.40;99.90;;;;;;5041758;28;20049;-74
2023/10/17 08:33:37;;;;;;;4.25;1.30;;;8.40;99.90;;;;;;5041816;28;20064;-74
2023/10/17 08:36:03;;;;;;;4.90;1.80;;;8.40;99.90;;;;;;5042648;28;20347;-74
2023/10/17 08:38:33;;;;;;;4.00;1.30;;;8.40;99.90;;;;;;5042860;28;20037;-74
2023/10/17 08:41:05;;;;;;;1.15;1.00;;;8.50;99.90;;;;;;5041867;28;20415;-75
2023/10/17 08:43:32;;;;;;;2.80;1.60;;;8.50;99.90;;;;;;5041910;28;20072;-74
2023/10/17 08:45:58;;;;;;;2.47;1.25;;;8.50;99.90;;;;;;5042909;28;20106;-74
2023/10/17 08:48:24;;;;;;;3.55;1.58;;;8.50;99.90;;;;;;5042041;28;20037;-74
2023/10/17 08:50:54;;;;;;;3.53;1.10;;;8.50;99.90;;;;;;5042328;28;20446;-74
2023/10/17 08:53:21;;;;;;;1.20;1.00;;;8.60;99.90;;;;;;5042569;28;20431;-74
2023/10/17 08:55:53;;;;;;;1.65;1.15;;;8.60;99.90;;;;;;5040983;28;20094;-74
2023/10/17 08:58:30;;;;;;;1.05;0.88;;;8.70;99.90;;;;;;5041027;28;20045;-74
2023/10/17 09:00:56;;;;;;;3.22;1.25;;;8.70;99.90;;;;;;5041939;28;20049;-74
2023/10/17 09:03:28;;;;;;;1.50;0.90;;;8.70;99.90;;;;;;5041515;28;20120;-74
2023/10/17 09:05:58;;;;;;;0.40;0.40;;;8.70;99.90;;;;;;5042270;28;20072;-74
2023/10/17 09:11:14;;;;;;;0.85;0.65;;;8.80;99.90;;;;;;5039670;28;21040;-75
2023/10/17 09:14:25;;;;;;;1.20;0.60;;;8.80;99.90;;;;;;5041772;28;20044;-75
2023/10/17 09:16:34;;;;;;;2.85;1.27;;;8.90;99.90;;;;;;5037769;28;20053;-74
2023/10/17 09:19:10;;;;;;;1.15;0.95;;;8.90;99.90;;;;;;5042296;28;20060;-74
2023/10/17 09:21:43;;;;;;;0.32;0.32;;;8.90;99.90;;;;;;5042393;28;20060;-74
2023/10/17 09:24:29;;;;;;;2.15;0.60;;;9.00;99.90;;;;;;5042423;28;20384;-74
2023/10/17 09:26:56;;;;;;;2.35;0.30;;;9.00;99.90;;;;;;5039229;28;20128;-75
2023/10/17 09:29:22;;;;;;;0.65;0.35;;;9.00;99.90;;;;;;5041478;28;20341;-74
2023/10/17 09:31:50;;;;;;;0.60;0.20;;;9.10;99.90;;;;;;5042244;28;20080;-74
2023/10/17 09:34:17;;;;;;;0.70;0.45;;;9.10;99.90;;;;;;5041023;28;20110;-74
2023/10/17 09:36:46;;;;;;;1.25;0.52;;;9.10;99.90;;;;;;5041016;28;20448;-75
2023/10/17 09:39:15;;;;;;;2.58;0.50;;;9.10;99.90;;;;;;5041475;28;20072;-75
2023/10/17 09:41:40;;;;;;;1.38;0.60;;;9.20;99.90;;;;;;5040746;28;20053;-75
2023/10/17 09:44:10;;;;;;;1.13;0.63;;;9.20;99.90;;;;;;5040288;28;20376;-74
2023/10/17 09:46:38;;;;;;;1.38;0.60;;;9.20;99.90;;;;;;5042024;28;20098;-74
2023/10/17 09:49:06;;;;;;;0.52;0.35;;;9.20;99.90;;;;;;5040081;28;20080;-74
2023/10/17 09:51:35;;;;;;;0.75;0.38;;;9.30;99.90;;;;;;5040774;28;20064;-74
2023/10/17 09:54:04;;;;;;;2.67;0.93;;;9.30;99.90;;;;;;5041103;28;20202;-74
2023/10/17 09:56:42;;;;;;;1.35;0.50;;;9.30;99.90;;;;;;5040501;28;20494;-74
2023/10/17 09:59:16;;;;;;;0.75;0.52;;;9.30;99.90;;;;;;5040553;28;20045;-74
2023/10/17 10:01:45;;;;;;;0.73;0.73;;;9.40;99.90;;;;;;5039909;28;20087;-75
2023/10/17 10:04:12;;;;;;;1.73;1.02;;;9.40;99.90;;;;;;5041130;28;20121;-74
2023/10/17 10:06:39;;;;;;;0.90;0.45;;;9.50;99.90;;;;;;5041897;28;20090;-74
2023/10/17 10:09:13;;;;;;;2.17;0.47;;;9.50;99.90;;;;;;5041301;28;20045;-74
2023/10/17 10:11:48;;;;;;;0.77;0.28;;;9.50;99.90;;;;;;5040846;28;20135;-74
2023/10/17 10:14:23;;;;;;;1.55;0.65;;;9.60;99.90;;;;;;5039354;28;20305;-75
2023/10/17 10:16:57;;;;;;;1.45;0.80;;;9.60;99.90;;;;;;5041187;28;20059;-74
2023/10/17 10:19:24;;;;;;;1.98;0.57;;;9.60;99.90;;;;;;5038795;28;20044;-75
2023/10/17 10:21:59;;;;;;;2.13;0.40;;;9.60;99.90;;;;;;5041267;28;20043;-75
2023/10/17 10:24:31;;;;;;;1.95;0.55;;;9.60;99.90;;;;;;5041411;28;20474;-75
2023/10/17 10:27:14;;;;;;;3.63;0.52;;;9.60;99.90;;;;;;5040073;28;20041;-74
2023/10/17 10:29:40;;;;;;;1.02;0.52;;;9.60;99.90;;;;;;5040307;28;20321;-75
2023/10/17 10:32:29;;;;;;;0.85;0.57;;;9.70;99.90;;;;;;5040290;28;21043;-74
2023/10/17 10:34:55;;;;;;;0.70;0.68;;;9.70;99.90;;;;;;5040180;28;20068;-75
2023/10/17 10:37:21;;;;;;;2.13;0.65;;;9.70;99.90;;;;;;5020147;28;20037;-75
2023/10/17 10:40:22;;;;;;;1.27;0.45;;;9.70;99.90;;;;;;5037205;28;20049;-75
2023/10/17 10:42:50;;;;;;;6.88;0.82;;;9.70;99.90;;;;;;5027094;28;20046;-75
2023/10/17 10:45:46;;;;;;;3.85;0.75;;;9.70;99.90;;;;;;5034952;28;20052;-75
2023/10/17 10:48:17;;;;;;;0.32;0.32;;;9.80;99.90;;;;;;5037571;28;20688;-74
2023/10/17 10:50:45;;;;;;;2.60;0.60;;;9.80;99.90;;;;;;5040177;28;20045;-75
2023/10/17 10:53:28;;;;;;;1.33;0.63;;;9.80;99.90;;;;;;5039160;28;20045;-76
2023/10/17 10:56:01;;;;;;;3.47;0.85;;;9.80;99.90;;;;;;5024272;28;20686;-75
2023/10/17 10:58:30;;;;;;;0.60;0.60;;;9.90;99.90;;;;;;5038047;28;20060;-74
2023/10/17 11:01:02;;;;;;;0.60;0.60;;;9.90;99.90;;;;;;5040644;28;20069;-73
2023/10/17 11:03:28;;;;;;;2.07;0.53;;;9.90;99.90;;;;;;5037976;28;20049;-73
2023/10/17 11:05:57;;;;;;;2.17;0.95;;;9.90;99.90;;;;;;5030209;28;20383;-72
2023/10/17 11:08:23;;;;;;;0.77;0.50;;;10.00;99.90;;;;;;5035989;28;20072;-72
2023/10/17 11:10:49;;;;;;;1.10;0.70;;;10.00;99.90;;;;;;5039737;28;20055;-73
2023/10/17 11:13:17;;;;;;;1.67;1.10;;;10.00;99.90;;;;;;5023399;28;20317;-72
2023/10/17 11:15:44;;;;;;;0.70;0.70;;;10.00;99.90;;;;;;5036226;28;20133;-73
2023/10/17 11:18:10;;;;;;;0.73;0.40;;;10.00;99.90;;;;;;5021258;28;20245;-74
2023/10/17 11:20:40;;;;;;;1.95;0.82;;;10.00;99.90;;;;;;5032155;28;20131;-73
2023/10/17 11:23:12;;;;;;;1.88;1.13;;;10.10;99.90;;;;;;5046121;28;20059;-73
2023/10/17 11:25:40;;;;;;;1.63;1.25;;;10.10;99.90;;;;;;5040624;28;20052;-73
2023/10/17 11:28:07;;;;;;;2.00;0.60;;;10.10;99.90;;;;;;5043977;28;20221;-73
2023/10/17 11:30:42;;;;;;;1.75;0.98;;;10.10;99.90;;;;;;5042617;28;20033;-73
2023/10/17 11:33:11;;;;;;;2.95;1.05;;;10.20;99.90;;;;;;5028761;28;20041;-72
2023/10/17 11:35:47;;;;;;;1.33;0.80;;;10.20;99.90;;;;;;5041834;28;20079;-73
2023/10/17 11:38:34;;;;;;;1.10;1.00;;;10.20;99.90;;;;;;5043245;28;20037;-73
2023/10/17 11:41:04;;;;;;;3.03;0.68;;;10.20;99.90;;;;;;5020792;28;20484;-72
2023/10/17 11:43:35;;;;;;;0.95;0.60;;;10.20;99.90;;;;;;5040087;28;20559;-72
2023/10/17 11:46:03;;;;;;;0.73;0.47;;;10.20;99.90;;;;;;5041430;28;20072;-73
2023/10/17 11:48:39;;;;;;;0.98;0.60;;;10.20;99.90;;;;;;5051833;28;20044;-72
2023/10/17 11:51:13;;;;;;;3.63;0.85;;;10.20;99.90;;;;;;5039334;28;20028;-71
2023/10/17 11:54:05;;;;;;;2.55;0.60;;;10.30;99.90;;;;;;5038301;28;20057;-72
2023/10/17 11:56:32;;;;;;;1.60;0.80;;;10.30;99.90;;;;;;5033659;28;20057;-74
2023/10/17 11:58:58;;;;;;;1.65;0.98;;;10.30;99.90;;;;;;5043580;28;20549;-75
2023/10/17 12:01:24;;;;;;;0.55;0.52;;;10.40;99.90;;;;;;5008466;28;20045;-73
2023/10/17 12:03:59;;;;;;;1.83;0.77;;;10.30;99.90;;;;;;5022967;28;20103;-73
2023/10/17 12:06:26;;;;;;;2.08;0.90;;;10.30;99.90;;;;;;5021788;28;20081;-74
2023/10/17 12:08:53;;;;;;;1.13;0.70;;;10.30;99.90;;;;;;5041171;28;20488;-73
2023/10/17 12:11:19;;;;;;;0.60;0.43;;;10.30;99.90;;;;;;5040422;28;20045;-73
2023/10/17 12:13:46;;;;;;;1.70;0.50;;;10.40;99.90;;;;;;5043407;28;20516;-74
2023/10/17 12:16:11;;;;;;;3.60;0.80;;;10.30;99.90;;;;;;5042283;28;20075;-73
2023/10/17 12:18:38;;;;;;;4.00;1.67;;;10.40;99.90;;;;;;5042607;28;20495;-74
2023/10/17 12:21:04;;;;;;;1.73;0.80;;;10.40;99.90;;;;;;5043777;28;20040;-73
2023/10/17 12:23:30;;;;;;;1.38;0.80;;;10.40;99.90;;;;;;5041184;28;20079;-74
2023/10/17 12:26:19;;;;;;;2.10;0.70;;;10.40;99.90;;;;;;5040946;28;20040;-74
2023/10/17 12:28:45;;;;;;;0.63;0.63;;;10.40;99.90;;;;;;5041991;28;20143;-73
2023/10/17 12:31:11;;;;;;;0.75;0.50;;;10.40;99.90;;;;;;5041020;28;20045;-75
2023/10/17 12:33:37;;;;;;;0.68;0.68;;;10.40;99.90;;;;;;5042366;28;20047;-76
2023/10/17 12:36:05;;;;;;;1.52;1.15;;;10.40;99.90;;;;;;5042252;28;20041;-73
2023/10/17 12:38:34;;;;;;;0.73;0.65;;;10.50;99.90;;;;;;5042200;28;20041;-73
2023/10/17 12:41:03;;;;;;;0.75;0.60;;;10.50;99.90;;;;;;5042147;28;20051;-73
2023/10/17 12:43:29;;;;;;;2.88;0.60;;;10.60;99.90;;;;;;5042072;28;20045;-73
2023/10/17 12:45:55;;;;;;;0.40;0.38;;;10.50;99.90;;;;;;5041113;28;20237;-74
2023/10/17 12:48:21;;;;;;;1.20;0.77;;;10.60;99.90;;;;;;5041719;28;20473;-73
2023/10/17 12:50:47;;;;;;;0.98;0.70;;;10.60;99.90;;;;;;5040631;28;20430;-74
2023/10/17 12:53:14;;;;;;;1.08;0.70;;;10.50;99.90;;;;;;5041700;28;20033;-74
2023/10/17 12:55:40;;;;;;;1.40;0.82;;;10.60;99.90;;;;;;5040285;28;20049;-77
2023/10/17 12:58:12;;;;;;;1.10;0.57;;;10.60;99.90;;;;;;5040967;28;20049;-74
2023/10/17 13:00:40;;;;;;;1.70;0.95;;;10.60;99.90;;;;;;5041809;28;20064;-75
2023/10/17 13:03:06;;;;;;;0.40;0.40;;;10.60;99.90;;;;;;5040860;28;20040;-74
2023/10/17 13:05:32;;;;;;;0.43;0.30;;;10.60;99.90;;;;;;5040248;28;20124;-74
2023/10/17 13:07:58;;;;;;;1.55;0.63;;;10.70;99.90;;;;;;5040925;28;20120;-74
2023/10/17 13:10:24;;;;;;;0.57;0.40;;;10.70;99.90;;;;;;5040666;28;20470;-74
2023/10/17 13:12:50;;;;;;;1.77;0.45;;;10.70;99.90;;;;;;5023067;28;20443;-73
2023/10/17 13:15:16;;;;;;;0.98;0.40;;;10.60;99.90;;;;;;5026913;28;20049;-73
2023/10/17 13:17:43;;;;;;;1.65;0.70;;;10.70;99.90;;;;;;5027978;28;20037;-74
2023/10/17 13:20:10;;;;;;;0.77;0.52;;;10.70;99.90;;;;;;5032697;28;20503;-73
2023/10/17 13:22:49;;;;;;;5.07;0.77;;;10.70;99.90;;;;;;5020969;28;20045;-73
2023/10/17 13:25:16;;;;;;;0.82;0.38;;;10.70;99.90;;;;;;5033087;28;20037;-74
2023/10/17 13:27:43;;;;;;;0.43;0.43;;;10.70;99.90;;;;;;5031687;28;20045;-73
2023/10/17 13:30:09;;;;;;;1.83;0.75;;;10.70;99.90;;;;;;5041786;28;20098;-75
2023/10/17 13:32:35;;;;;;;0.28;0.22;;;10.70;99.90;;;;;;5061056;28;20494;-72
2023/10/17 13:35:00;;;;;;;3.05;0.50;;;10.70;99.90;;;;;;5049686;28;20620;-74
2023/10/17 13:37:27;;;;;;;2.30;0.90;;;10.70;99.90;;;;;;5032293;28;20037;-75
2023/10/17 13:39:53;;;;;;;3.03;0.60;;;10.70;99.90;;;;;;5041324;28;20084;-74
2023/10/17 13:42:19;;;;;;;1.10;0.95;;;10.80;99.90;;;;;;5057409;28;20061;-75
2023/10/17 13:44:45;;;;;;;0.70;0.55;;;10.80;99.90;;;;;;5062819;28;20123;-73
2023/10/17 13:47:10;;;;;;;1.42;1.08;;;10.80;99.90;;;;;;5040952;28;20038;-76
2023/10/17 13:49:36;;;;;;;1.05;0.60;;;10.80;99.90;;;;;;5036981;28;20060;-74
2023/10/17 13:52:03;;;;;;;0.57;0.57;;;10.80;99.90;;;;;;5042780;28;20052;-74
2023/10/17 13:54:34;;;;;;;0.60;0.40;;;10.80;99.90;;;;;;5050353;28;20080;-74
2023/10/17 13:57:00;;;;;;;1.20;0.60;;;10.80;99.90;;;;;;5041735;28;20052;-74
2023/10/17 13:59:38;;;;;;;0.93;0.50;;;10.80;99.90;;;;;;5041127;28;20120;-76
2023/10/17 14:02:08;;;;;;;0.82;0.50;;;10.80;99.90;;;;;;5040984;28;20045;-75
2023/10/17 14:04:37;;;;;;;0.50;0.40;;;10.80;99.90;;;;;;5040369;28;20076;-77
2023/10/17 14:07:06;;;;;;;3.35;0.75;;;10.80;99.90;;;;;;5041179;28;20265;-76
2023/10/17 14:09:32;;;;;;;0.95;0.85;;;10.80;99.90;;;;;;5042271;28;20377;-74
2023/10/17 14:11:59;;;;;;;1.50;0.73;;;10.80;99.90;;;;;;5039987;28;20040;-77
2023/10/17 14:14:25;;;;;;;1.85;0.73;;;10.80;99.90;;;;;;5039463;28;20056;-75
2023/10/17 14:16:51;;;;;;;2.05;0.50;;;10.70;99.90;;;;;;5043545;28;20057;-75
2023/10/17 14:19:28;;;;;;;1.70;0.70;;;10.80;99.90;;;;;;5040797;28;20174;-77
2023/10/17 14:24:49;;;;;;;1.67;0.70;;;10.80;99.90;;;;;;5040944;28;20128;-75
2023/10/17 14:27:20;;;;;;;1.15;0.55;;;10.80;99.90;;;;;;5040424;28;20107;-76
2023/10/17 14:29:47;;;;;;;1.42;1.33;;;10.70;99.90;;;;;;5039493;28;20049;-74
2023/10/17 14:32:19;;;;;;;1.85;0.98;;;10.70;99.90;;;;;;5040109;28;20051;-75
2023/10/17 14:34:45;;;;;;;3.13;1.23;;;10.70;99.90;;;;;;5040176;28;20076;-75
2023/10/17 14:37:13;;;;;;;0.65;0.55;;;10.70;99.90;;;;;;5039556;28;20045;-74
2023/10/17 14:39:40;;;;;;;4.70;1.80;;;10.70;99.90;;;;;;5034151;28;20128;-72
2023/10/17 14:42:05;;;;;;;0.80;0.80;;;10.70;99.90;;;;;;5017770;28;20447;-74
2023/10/17 14:44:32;;;;;;;2.00;0.70;;;10.70;99.90;;;;;;5024056;28;20045;-73
2023/10/17 14:46:58;;;;;;;1.80;0.50;;;10.70;99.90;;;;;;5028394;28;20052;-75
2023/10/17 14:49:26;;;;;;;1.10;0.98;;;10.70;99.90;;;;;;5039585;28;20386;-74
2023/10/17 14:51:53;;;;;;;0.73;0.50;;;10.70;99.90;;;;;;5028603;28;20127;-76
2023/10/17 14:54:19;;;;;;;1.30;0.88;;;10.70;99.90;;;;;;5016436;28;20095;-78
2023/10/17 14:56:44;;;;;;;1.02;0.75;;;10.70;99.90;;;;;;5028252;28;20041;-76
2023/10/17 14:59:10;;;;;;;4.43;0.77;;;10.70;99.90;;;;;;5031625;28;20151;-77
2023/10/17 15:01:36;;;;;;;4.55;1.05;;;10.70;99.90;;;;;;5043043;28;20048;-76
2023/10/17 15:04:02;;;;;;;1.05;0.90;;;10.70;99.90;;;;;;5036695;28;20609;-75
2023/10/17 15:06:29;;;;;;;3.05;1.13;;;10.70;99.90;;;;;;5030790;28;20033;-75
2023/10/17 15:08:54;;;;;;;2.45;1.00;;;10.70;99.90;;;;;;5028343;28;20045;-75